createdAt,value
2018-06-29T00:00:24.593Z,0.80
2018-06-29T00:02:54.109Z,0.83
2018-06-29T00:05:23.885Z,0.90
2018-06-29T00:07:53.283Z,0.83
2018-06-29T00:10:26.256Z,0.80
2018-06-29T00:12:56.643Z,1.00
2018-06-29T00:15:26.197Z,0.90
2018-06-29T00:17:55.759Z,1.10
2018-06-29T00:20:25.258Z,0.80
2018-06-29T00:22:54.937Z,1.10
2018-06-29T00:25:24.452Z,0.93
2018-06-29T00:27:54.528Z,1.10
2018-06-29T00:30:24.031Z,1.03
2018-06-29T00:32:53.651Z,1.00
2018-06-29T00:35:23.152Z,1.00
2018-06-29T00:37:52.570Z,0.90
2018-06-29T00:40:22.032Z,0.80
2018-06-29T00:42:51.510Z,1.00
2018-06-29T00:45:20.890Z,1.00
2018-06-29T00:47:50.647Z,0.90
2018-06-29T00:50:20.189Z,1.10
2018-06-29T00:52:49.856Z,0.87
2018-06-29T00:55:19.402Z,0.80
2018-06-29T00:57:48.913Z,0.90
2018-06-29T01:00:18.811Z,0.90
2018-06-29T01:02:48.603Z,0.80
2018-06-29T01:05:18.313Z,0.83
2018-06-29T01:07:47.835Z,0.87
2018-06-29T01:10:17.225Z,1.10
2018-06-29T01:12:46.648Z,1.30
2018-06-29T01:15:16.099Z,1.13
2018-06-29T01:17:45.571Z,1.00
2018-06-29T01:20:15.068Z,1.03
2018-06-29T01:22:44.743Z,1.07
2018-06-29T01:25:14.163Z,0.83
2018-06-29T01:27:43.611Z,1.00
2018-06-29T01:30:13.127Z,0.80
2018-06-29T01:32:42.640Z,1.10
2018-06-29T01:35:12.249Z,1.20
2018-06-29T01:37:41.701Z,1.10
2018-06-29T01:40:11.150Z,1.00
2018-06-29T01:42:40.588Z,1.00
2018-06-29T01:45:10.033Z,0.90
2018-06-29T01:47:39.882Z,0.90
2018-06-29T01:50:09.390Z,1.00
2018-06-29T01:52:38.991Z,1.07
2018-06-29T01:55:09.239Z,1.00
2018-06-29T01:57:39.028Z,1.00
2018-06-29T02:00:08.580Z,1.40
2018-06-29T02:02:38.095Z,1.20
2018-06-29T02:05:07.636Z,0.97
2018-06-29T02:07:37.303Z,1.47
2018-06-29T02:10:07.151Z,1.00
2018-06-29T02:12:37.159Z,1.20
2018-06-29T02:15:07.142Z,1.20
2018-06-29T02:17:37.427Z,1.23
2018-06-29T02:20:07.154Z,1.00
2018-06-29T02:22:36.990Z,1.20
2018-06-29T02:25:06.574Z,1.00
2018-06-29T02:27:36.309Z,1.43
2018-06-29T02:30:06.309Z,1.27
2018-06-29T02:32:35.878Z,1.40
2018-06-29T02:35:05.553Z,1.37
2018-06-29T02:37:35.604Z,1.43
2018-06-29T02:40:05.838Z,1.50
2018-06-29T02:42:35.473Z,1.47
2018-06-29T02:45:05.129Z,1.57
2018-06-29T02:47:34.663Z,1.37
2018-06-29T02:50:04.408Z,1.27
2018-06-29T02:52:34.013Z,1.10
2018-06-29T02:55:03.766Z,1.13
2018-06-29T02:57:33.653Z,1.20
2018-06-29T03:00:03.141Z,1.50
2018-06-29T03:02:32.579Z,1.10
2018-06-29T03:05:02.010Z,1.00
2018-06-29T03:07:31.450Z,1.00
2018-06-29T03:10:00.983Z,0.90
2018-06-29T03:12:30.349Z,1.17
2018-06-29T03:14:59.872Z,1.10
2018-06-29T03:17:29.259Z,1.00
2018-06-29T03:19:58.776Z,1.10
2018-06-29T03:22:28.093Z,1.20
2018-06-29T03:24:57.585Z,1.00
2018-06-29T03:27:27.106Z,0.93
2018-06-29T03:29:56.725Z,0.90
2018-06-29T03:32:26.182Z,0.93
2018-06-29T03:34:55.873Z,1.10
2018-06-29T03:37:25.292Z,1.17
2018-06-29T03:39:55.135Z,1.23
2018-06-29T03:42:24.769Z,1.00
2018-06-29T03:44:54.419Z,0.97
2018-06-29T03:47:24.107Z,0.90
2018-06-29T03:49:53.709Z,1.17
2018-06-29T03:52:23.114Z,1.03
2018-06-29T03:54:52.748Z,1.10
2018-06-29T03:57:22.419Z,1.10
2018-06-29T03:59:52.011Z,0.97
2018-06-29T04:02:21.482Z,1.00
2018-06-29T04:04:51.053Z,1.10
2018-06-29T04:07:20.575Z,1.13
2018-06-29T04:09:49.988Z,1.10
2018-06-29T04:12:19.544Z,1.00
2018-06-29T04:14:49.223Z,0.97
2018-06-29T04:17:18.790Z,1.03
2018-06-29T04:19:48.907Z,1.07
2018-06-29T04:22:18.461Z,1.37
2018-06-29T04:24:47.945Z,0.90
2018-06-29T04:27:17.490Z,0.80
2018-06-29T04:29:47.446Z,0.97
2018-06-29T04:32:16.915Z,1.10
2018-06-29T04:34:46.344Z,1.20
2018-06-29T04:37:16.030Z,1.07
2018-06-29T04:39:45.573Z,1.43
2018-06-29T04:42:15.724Z,1.30
2018-06-29T04:44:45.224Z,1.20
2018-06-29T04:47:14.665Z,1.30
2018-06-29T04:49:44.557Z,0.87
2018-06-29T04:52:14.037Z,1.20
2018-06-29T04:54:43.692Z,1.22
2018-06-29T04:57:13.082Z,1.00
2018-06-29T04:59:42.720Z,1.00
2018-06-29T05:02:12.419Z,0.90
2018-06-29T05:04:42.180Z,1.10
2018-06-29T05:07:11.673Z,1.40
2018-06-29T05:09:41.243Z,1.20
2018-06-29T05:12:10.845Z,1.10
2018-06-29T05:14:40.602Z,1.10
2018-06-29T05:17:10.024Z,1.10
2018-06-29T05:19:39.822Z,1.33
2018-06-29T05:22:09.287Z,1.20
2018-06-29T05:24:38.782Z,1.23
2018-06-29T05:27:08.276Z,1.40
2018-06-29T05:29:37.934Z,1.23
2018-06-29T05:32:07.397Z,1.37
2018-06-29T05:34:37.082Z,1.20
2018-06-29T05:37:06.734Z,1.35
2018-06-29T05:39:36.436Z,1.40
2018-06-29T05:42:06.041Z,1.37
2018-06-29T05:44:35.751Z,1.20
2018-06-29T05:47:05.938Z,1.43
2018-06-29T05:49:35.715Z,1.40
2018-06-29T05:52:05.376Z,1.40
2018-06-29T05:54:34.992Z,1.50
2018-06-29T05:57:04.649Z,1.55
2018-06-29T05:59:34.377Z,1.30
2018-06-29T06:02:04.170Z,1.40
2018-06-29T06:04:33.905Z,1.22
2018-06-29T06:07:03.643Z,1.30
2018-06-29T06:09:33.726Z,1.50
2018-06-29T06:12:03.284Z,1.12
2018-06-29T06:14:32.889Z,1.22
2018-06-29T06:17:02.499Z,1.40
2018-06-29T06:19:42.882Z,1.37
2018-06-29T06:22:12.606Z,1.77
2018-06-29T06:24:42.190Z,1.80
2018-06-29T06:27:11.798Z,1.40
2018-06-29T06:29:41.420Z,1.50
2018-06-29T06:32:11.000Z,1.30
2018-06-29T06:34:40.935Z,1.45
2018-06-29T06:37:10.980Z,1.35
2018-06-29T06:39:40.750Z,1.30
2018-06-29T06:42:10.250Z,1.30
2018-06-29T06:44:39.970Z,1.30
2018-06-29T06:47:09.463Z,1.20
2018-06-29T06:49:39.247Z,1.52
2018-06-29T06:52:08.914Z,1.10
2018-06-29T06:54:38.545Z,1.02
2018-06-29T06:57:08.063Z,1.30
2018-06-29T06:59:37.877Z,1.10
2018-06-29T07:02:07.991Z,1.20
2018-06-29T07:04:37.709Z,1.22
2018-06-29T07:07:07.237Z,1.87
2018-06-29T07:09:37.098Z,1.70
2018-06-29T07:12:06.598Z,1.80
2018-06-29T07:14:36.170Z,1.20
2018-06-29T07:17:05.891Z,1.30
2018-06-29T07:19:35.812Z,1.40
2018-06-29T07:22:05.561Z,1.50
2018-06-29T07:24:35.527Z,1.40
2018-06-29T07:27:05.229Z,1.20
2018-06-29T07:29:34.972Z,1.57
2018-06-29T07:32:04.850Z,1.40
2018-06-29T07:34:34.525Z,1.62
2018-06-29T07:37:04.239Z,1.50
2018-06-29T07:39:33.703Z,1.70
2018-06-29T07:42:03.174Z,1.30
2018-06-29T07:44:33.006Z,1.20
2018-06-29T07:47:02.842Z,1.57
2018-06-29T07:49:32.803Z,1.40
2018-06-29T07:52:02.625Z,1.62
2018-06-29T07:54:32.455Z,1.37
2018-06-29T07:57:02.059Z,1.20
2018-06-29T07:59:31.651Z,1.35
2018-06-29T08:02:01.281Z,1.35
2018-06-29T08:04:30.799Z,1.40
2018-06-29T08:07:00.360Z,1.70
2018-06-29T08:09:30.245Z,1.77
2018-06-29T08:11:59.952Z,1.50
2018-06-29T08:14:30.692Z,1.57
2018-06-29T08:17:00.420Z,1.77
2018-06-29T08:19:31.186Z,1.62
2018-06-29T08:22:00.908Z,2.05
2018-06-29T08:24:32.681Z,3.02
2018-06-29T08:27:02.334Z,2.60
2018-06-29T08:29:33.418Z,2.50
2018-06-29T08:32:03.159Z,2.17
2018-06-29T08:34:32.760Z,1.77
2018-06-29T08:37:02.687Z,1.95
2018-06-29T08:39:32.264Z,1.80
2018-06-29T08:42:01.866Z,2.08
2018-06-29T08:44:31.480Z,1.72
2018-06-29T08:47:01.150Z,2.37
2018-06-29T08:49:30.815Z,1.77
2018-06-29T08:52:00.616Z,1.80
2018-06-29T08:54:30.374Z,1.57
2018-06-29T08:57:00.076Z,1.47
2018-06-29T08:59:30.032Z,1.20
2018-06-29T09:01:59.732Z,1.40
2018-06-29T09:04:29.379Z,0.95
2018-06-29T09:06:59.142Z,1.22
2018-06-29T09:09:28.920Z,1.10
2018-06-29T09:11:59.018Z,1.17
2018-06-29T09:14:28.749Z,1.10
2018-06-29T09:16:58.525Z,1.05
2018-06-29T09:19:28.035Z,1.10
2018-06-29T09:21:57.724Z,1.00
2018-06-29T09:24:27.508Z,1.22
2018-06-29T09:26:57.244Z,1.20
2018-06-29T09:29:27.085Z,1.15
2018-06-29T09:31:56.814Z,1.15
2018-06-29T09:34:26.525Z,0.95
2018-06-29T09:36:56.043Z,1.20
2018-06-29T09:39:25.477Z,1.42
2018-06-29T09:41:55.185Z,1.12
2018-06-29T09:44:24.919Z,1.40
2018-06-29T09:46:54.529Z,1.00
2018-06-29T09:49:24.113Z,1.20
2018-06-29T09:51:53.869Z,1.30
2018-06-29T09:54:23.349Z,0.90
2018-06-29T09:56:53.157Z,1.25
2018-06-29T09:59:22.785Z,1.47
2018-06-29T10:01:52.541Z,1.07
2018-06-29T10:04:22.024Z,1.30
2018-06-29T10:06:51.707Z,1.47
2018-06-29T10:09:21.530Z,1.20
2018-06-29T10:11:52.009Z,1.17
2018-06-29T10:14:21.717Z,1.17
2018-06-29T10:16:51.477Z,1.25
2018-06-29T10:19:21.088Z,1.30
2018-06-29T10:21:50.845Z,1.52
2018-06-29T10:24:20.650Z,1.20
2018-06-29T10:26:50.251Z,1.45
2018-06-29T10:29:19.905Z,1.47
2018-06-29T10:31:49.751Z,1.17
2018-06-29T10:34:19.560Z,1.52
2018-06-29T10:36:49.602Z,2.35
2018-06-29T10:39:19.216Z,1.70
2018-06-29T10:41:48.899Z,2.70
2018-06-29T10:44:18.534Z,2.10
2018-06-29T10:46:48.314Z,2.20
2018-06-29T10:49:17.980Z,2.62
2018-06-29T10:51:47.801Z,2.65
2018-06-29T10:54:17.536Z,2.72
2018-06-29T10:56:47.349Z,2.75
2018-06-29T10:59:17.405Z,3.10
2018-06-29T11:01:47.469Z,2.72
2018-06-29T11:04:16.901Z,3.10
2018-06-29T11:06:46.676Z,3.25
2018-06-29T11:09:16.096Z,3.92
2018-06-29T11:11:45.608Z,2.50
2018-06-29T11:14:15.171Z,3.08
2018-06-29T11:16:45.002Z,3.67
2018-06-29T11:19:14.458Z,2.95
2018-06-29T11:21:44.408Z,3.15
2018-06-29T11:24:14.018Z,2.75
2018-06-29T11:26:43.782Z,3.25
2018-06-29T11:29:13.397Z,3.27
2018-06-29T11:31:43.157Z,3.00
2018-06-29T11:34:12.823Z,3.08
2018-06-29T11:36:42.423Z,2.90
2018-06-29T11:39:14.361Z,3.08
2018-06-29T11:41:44.586Z,3.50
2018-06-29T11:44:14.506Z,3.00
2018-06-29T11:46:44.106Z,3.10
2018-06-29T11:49:13.898Z,3.02
2018-06-29T11:51:43.770Z,2.85
2018-06-29T11:54:13.278Z,3.08
2018-06-29T11:56:43.022Z,2.98
2018-06-29T11:59:12.609Z,3.42
2018-06-29T12:01:42.160Z,3.33
2018-06-29T12:04:11.776Z,3.40
2018-06-29T12:06:41.712Z,3.30
2018-06-29T12:09:12.911Z,3.42
2018-06-29T12:11:43.140Z,4.03
2018-06-29T12:14:12.748Z,3.72
2018-06-29T12:16:42.424Z,3.95
2018-06-29T12:19:12.065Z,3.92
2018-06-29T12:21:41.912Z,3.62
2018-06-29T12:24:11.882Z,3.80
2018-06-29T12:26:41.554Z,3.37
2018-06-29T12:29:11.055Z,3.27
2018-06-29T12:31:40.674Z,4.15
2018-06-29T12:34:10.176Z,3.60
2018-06-29T12:36:39.951Z,3.65
2018-06-29T12:39:09.998Z,3.80
2018-06-29T12:41:40.591Z,3.85
2018-06-29T12:44:10.527Z,3.87
2018-06-29T12:46:39.989Z,4.22
2018-06-29T12:49:09.751Z,3.80
2018-06-29T12:51:39.481Z,4.60
2018-06-29T12:54:08.972Z,3.90
2018-06-29T12:56:38.569Z,4.50
2018-06-29T12:59:08.100Z,4.10
2018-06-29T13:01:37.592Z,3.60
2018-06-29T13:04:07.190Z,3.08
2018-06-29T13:06:36.716Z,3.67
2018-06-29T13:09:10.683Z,3.40
2018-06-29T13:11:40.434Z,3.58
2018-06-29T13:14:09.873Z,3.25
2018-06-29T13:16:39.335Z,4.42
2018-06-29T13:19:10.071Z,3.58
2018-06-29T13:21:39.816Z,3.80
2018-06-29T13:24:09.241Z,3.17
2018-06-29T13:26:38.716Z,3.95
2018-06-29T13:29:08.145Z,3.40
2018-06-29T13:31:37.684Z,3.33
2018-06-29T13:34:07.256Z,3.55
2018-06-29T13:36:36.832Z,3.83
2018-06-29T13:39:09.875Z,4.42
2018-06-29T13:41:39.783Z,4.03
2018-06-29T13:44:09.349Z,4.53
2018-06-29T13:46:38.996Z,4.00
2018-06-29T13:49:08.553Z,4.12
2018-06-29T13:51:38.240Z,4.92
2018-06-29T13:54:07.727Z,4.97
2018-06-29T13:56:37.232Z,5.30
2018-06-29T13:59:06.835Z,4.90
2018-06-29T14:01:36.377Z,5.55
2018-06-29T14:04:06.187Z,5.17
2018-06-29T14:06:35.776Z,4.97
2018-06-29T14:09:07.061Z,5.42
2018-06-29T14:11:36.657Z,5.10
2018-06-29T14:14:06.191Z,5.53
2018-06-29T14:16:35.996Z,5.37
2018-06-29T14:19:05.738Z,5.40
2018-06-29T14:21:35.435Z,6.40
2018-06-29T14:24:04.923Z,6.00
2018-06-29T14:26:34.505Z,5.80
2018-06-29T14:29:04.021Z,5.90
2018-06-29T14:31:33.719Z,5.40
2018-06-29T14:34:03.158Z,6.10
2018-06-29T14:36:32.647Z,6.17
2018-06-29T14:39:02.362Z,5.40
2018-06-29T14:41:32.592Z,5.22
2018-06-29T14:44:02.180Z,5.22
2018-06-29T14:46:32.966Z,5.83
2018-06-29T14:49:02.344Z,5.40
2018-06-29T14:51:33.450Z,5.25
2018-06-29T14:54:03.133Z,5.17
2018-06-29T14:56:33.674Z,5.47
2018-06-29T14:59:03.274Z,5.35
2018-06-29T15:01:32.850Z,5.50
2018-06-29T15:04:02.464Z,5.20
2018-06-29T15:06:31.888Z,5.28
2018-06-29T15:09:01.402Z,4.90
2018-06-29T15:11:30.770Z,5.40
2018-06-29T15:14:00.449Z,4.97
2018-06-29T15:16:30.023Z,5.28
2018-06-29T15:18:59.799Z,4.97
2018-06-29T15:21:29.478Z,4.53
2018-06-29T15:23:59.153Z,4.75
2018-06-29T15:26:28.839Z,4.40
2018-06-29T15:28:58.559Z,4.50
2018-06-29T15:31:28.010Z,4.20
2018-06-29T15:33:57.859Z,4.03
2018-06-29T15:36:27.353Z,4.50
2018-06-29T15:38:56.956Z,4.20
2018-06-29T15:41:26.664Z,3.95
2018-06-29T15:43:56.290Z,4.00
2018-06-29T15:46:25.691Z,3.87
2018-06-29T15:48:55.300Z,4.12
2018-06-29T15:51:24.675Z,4.03
2018-06-29T15:53:54.149Z,3.90
2018-06-29T15:56:23.659Z,3.85
2018-06-29T15:58:53.409Z,3.98
2018-06-29T16:01:22.856Z,4.47
2018-06-29T16:03:52.445Z,4.28
2018-06-29T16:06:22.111Z,4.30
2018-06-29T16:08:51.763Z,3.90
2018-06-29T16:11:21.228Z,4.08
2018-06-29T16:13:51.013Z,4.50
2018-06-29T16:16:20.407Z,3.92
2018-06-29T16:18:49.858Z,3.85
2018-06-29T16:21:19.301Z,4.12
2018-06-29T16:23:49.483Z,4.62
2018-06-29T16:26:18.854Z,3.95
2018-06-29T16:28:51.152Z,4.33
2018-06-29T16:31:20.762Z,4.47
2018-06-29T16:33:50.670Z,4.25
2018-06-29T16:36:20.511Z,4.05
2018-06-29T16:38:50.082Z,4.53
2018-06-29T16:41:19.614Z,4.85
2018-06-29T16:43:49.381Z,4.62
2018-06-29T16:46:18.842Z,4.70
2018-06-29T16:48:48.423Z,4.92
2018-06-29T16:51:18.034Z,5.10
2018-06-29T16:53:47.774Z,4.90
2018-06-29T16:56:17.212Z,4.80
2018-06-29T16:58:46.581Z,4.75
2018-06-29T17:01:16.147Z,4.85
2018-06-29T17:03:45.847Z,4.85
2018-06-29T17:06:15.710Z,5.30
2018-06-29T17:08:45.348Z,5.20
2018-06-29T17:11:14.768Z,5.67
2018-06-29T17:13:47.764Z,5.30
2018-06-29T17:16:17.448Z,6.10
2018-06-29T17:18:47.048Z,5.78
2018-06-29T17:21:16.407Z,5.65
2018-06-29T17:23:46.016Z,6.22
2018-06-29T17:26:15.364Z,5.97
2018-06-29T17:28:45.007Z,6.12
2018-06-29T17:31:14.503Z,6.75
2018-06-29T17:33:44.110Z,6.15
2018-06-29T17:36:13.704Z,6.20
2018-06-29T17:38:56.667Z,6.30
2018-06-29T17:41:26.326Z,6.30
2018-06-29T17:44:04.425Z,5.87
2018-06-29T17:46:34.145Z,6.60
2018-06-29T17:49:03.772Z,6.87
2018-06-29T17:51:33.631Z,6.55
2018-06-29T17:54:05.716Z,6.58
2018-06-29T17:56:36.118Z,7.12
2018-06-29T17:59:06.497Z,6.42
2018-06-29T18:01:36.596Z,6.62
2018-06-29T18:04:06.650Z,6.95
2018-06-29T18:06:37.410Z,7.05
2018-06-29T18:09:09.820Z,7.12
2018-06-29T18:11:40.856Z,6.83
2018-06-29T18:14:13.792Z,6.58
2018-06-29T18:16:43.480Z,7.20
2018-06-29T18:19:13.878Z,6.97
2018-06-29T18:21:43.889Z,6.60
2018-06-29T18:24:13.411Z,6.80
2018-06-29T18:26:43.777Z,7.40
2018-06-29T18:29:13.213Z,7.15
2018-06-29T18:31:42.854Z,7.08
2018-06-29T18:34:12.417Z,7.67
2018-06-29T18:36:43.120Z,7.58
2018-06-29T18:39:15.707Z,8.03
2018-06-29T18:41:46.933Z,7.97
2018-06-29T18:44:16.432Z,7.25
2018-06-29T18:46:48.035Z,7.97
2018-06-29T18:49:17.832Z,7.90
2018-06-29T18:51:50.138Z,7.92
2018-06-29T18:54:20.087Z,8.30
2018-06-29T18:56:50.244Z,8.78
2018-06-29T18:59:19.698Z,8.20
2018-06-29T19:01:49.599Z,8.28
2018-06-29T19:04:20.161Z,9.10
2018-06-29T19:06:49.615Z,9.20
2018-06-29T19:09:19.775Z,8.23
2018-06-29T19:11:49.572Z,8.33
2018-06-29T19:14:22.169Z,8.70
2018-06-29T19:16:52.488Z,8.48
2018-06-29T19:19:28.816Z,8.88
2018-06-29T19:21:59.344Z,8.93
2018-06-29T19:24:28.724Z,8.00
2018-06-29T19:26:58.650Z,8.38
2018-06-29T19:29:29.249Z,9.43
2018-06-29T19:31:59.389Z,8.38
2018-06-29T19:34:28.927Z,8.53
2018-06-29T19:36:59.227Z,8.13
2018-06-29T19:39:30.437Z,8.70
2018-06-29T19:42:04.009Z,8.88
2018-06-29T19:44:33.489Z,8.23
2018-06-29T19:47:03.029Z,8.58
2018-06-29T19:49:37.250Z,9.33
2018-06-29T19:52:08.347Z,8.30
2018-06-29T19:54:37.885Z,8.10
2018-06-29T19:57:07.929Z,8.75
2018-06-29T19:59:37.769Z,9.20
2018-06-29T20:02:08.794Z,9.15
2018-06-29T20:04:38.616Z,9.05
2018-06-29T20:07:08.885Z,9.63
2018-06-29T20:09:38.313Z,9.25
2018-06-29T20:12:08.952Z,9.15
2018-06-29T20:14:38.955Z,9.43
2018-06-29T20:17:09.192Z,8.90
2018-06-29T20:19:38.827Z,8.98
2018-06-29T20:22:09.633Z,8.90
2018-06-29T20:24:39.922Z,9.20
2018-06-29T20:27:10.416Z,8.98
2018-06-29T20:29:40.093Z,9.00
2018-06-29T20:32:09.620Z,9.68
2018-06-29T20:34:38.988Z,8.65
2018-06-29T20:37:08.712Z,9.48
2018-06-29T20:39:38.174Z,9.48
2018-06-29T20:42:08.360Z,11.00
2018-06-29T20:44:37.742Z,9.78
2018-06-29T20:47:07.159Z,9.85
2018-06-29T20:49:36.671Z,9.95
2018-06-29T20:52:06.372Z,9.15
2018-06-29T20:54:36.447Z,8.55
2018-06-29T20:57:06.183Z,9.05
2018-06-29T20:59:36.061Z,9.83
2018-06-29T21:02:05.825Z,9.80
2018-06-29T21:04:35.510Z,10.20
2018-06-29T21:07:05.242Z,9.30
2018-06-29T21:09:34.859Z,9.80
2018-06-29T21:12:04.447Z,9.48
2018-06-29T21:14:33.926Z,9.65
2018-06-29T21:17:03.418Z,9.68
2018-06-29T21:19:32.892Z,10.82
2018-06-29T21:22:02.669Z,10.13
2018-06-29T21:24:32.270Z,9.78
2018-06-29T21:27:02.025Z,10.00
2018-06-29T21:29:31.628Z,9.25
2018-06-29T21:32:01.203Z,8.78
2018-06-29T21:34:30.551Z,9.13
2018-06-29T21:37:00.123Z,9.20
2018-06-29T21:39:29.859Z,9.13
2018-06-29T21:41:59.443Z,9.33
2018-06-29T21:44:29.016Z,10.45
2018-06-29T21:46:58.565Z,9.68
2018-06-29T21:49:28.051Z,9.85
2018-06-29T21:51:57.843Z,10.53
2018-06-29T21:54:27.251Z,10.68
2018-06-29T21:56:56.922Z,9.03
2018-06-29T21:59:26.513Z,8.88
2018-06-29T22:01:56.082Z,9.03
2018-06-29T22:04:25.543Z,9.35
2018-06-29T22:06:55.169Z,9.45
2018-06-29T22:09:24.639Z,9.93
2018-06-29T22:11:54.179Z,8.95
2018-06-29T22:14:23.681Z,9.95
2018-06-29T22:16:53.207Z,10.28
2018-06-29T22:19:22.783Z,10.28
2018-06-29T22:21:52.258Z,11.12
2018-06-29T22:24:21.910Z,9.35
2018-06-29T22:26:51.461Z,9.43
2018-06-29T22:29:20.988Z,9.58
2018-06-29T22:31:50.442Z,10.35
2018-06-29T22:34:19.992Z,11.05
2018-06-29T22:36:49.539Z,10.20
2018-06-29T22:39:18.987Z,9.15
2018-06-29T22:41:48.482Z,9.40
2018-06-29T22:44:17.963Z,9.85
2018-06-29T22:46:47.433Z,9.80
2018-06-29T22:49:16.849Z,9.53
2018-06-29T22:51:46.595Z,10.38
2018-06-29T22:54:15.944Z,9.20
2018-06-29T22:56:45.374Z,8.90
2018-06-29T22:59:14.740Z,8.58
2018-06-29T23:01:44.554Z,9.85
2018-06-29T23:04:17.548Z,8.93
2018-06-29T23:06:48.922Z,10.08
2018-06-29T23:09:18.333Z,9.70
2018-06-29T23:11:48.569Z,9.35
2018-06-29T23:14:17.961Z,9.50
2018-06-29T23:16:49.147Z,9.78
2018-06-29T23:19:18.658Z,9.95
2018-06-29T23:21:50.230Z,9.68
2018-06-29T23:24:19.771Z,9.83
2018-06-29T23:26:49.281Z,10.00
2018-06-29T23:29:18.822Z,9.80
2018-06-29T23:31:48.311Z,10.00
2018-06-29T23:34:17.939Z,10.80
2018-06-29T23:36:47.373Z,10.75
2018-06-29T23:39:16.893Z,11.05
2018-06-29T23:41:46.525Z,11.25
2018-06-29T23:44:15.987Z,9.53
2018-06-29T23:46:45.451Z,9.95
2018-06-29T23:49:14.933Z,9.50
2018-06-29T23:51:44.580Z,10.15
2018-06-29T23:54:14.010Z,9.08
2018-06-29T23:56:43.456Z,10.15
2018-06-29T23:59:12.898Z,10.03
